sensor_id;sensor_type;location;lat;lon;timestamp;P1;durP1;ratioP1;P2;durP2;ratioP2
20004;SDS011;68409;45.498;-73.582;2023-03-21T00:01:26;8.30;;;4.53;;
20004;SDS011;68409;45.498;-73.582;2023-03-21T00:03:53;6.40;;;4.03;;
20004;SDS011;68409;45.498;-73.582;2023-03-21T00:06:19;11.37;;;4.83;;
20004;SDS011;68409;45.498;-73.582;2023-03-21T00:08:45;8.90;;;5.07;;
20004;SDS011;68409;45.498;-73.582;2023-03-21T00:11:12;8.17;;;4.97;;
20004;SDS011;68409;45.498;-73.582;2023-03-21T00:13:38;7.77;;;4.50;;
20004;SDS011;68409;45.498;-73.582;2023-03-21T00:16:14;8.83;;;4.60;;
20004;SDS011;68409;45.498;-73.582;2023-03-21T00:18:42;9.90;;;4.50;;
20004;SDS011;68409;45.498;-73.582;2023-03-21T00:21:11;7.87;;;3.90;;
20004;SDS011;68409;45.498;-73.582;2023-03-21T00:23:42;12.70;;;4.53;;
20004;SDS011;68409;45.498;-73.582;2023-03-21T00:26:10;10.43;;;5.00;;
20004;SDS011;68409;45.498;-73.582;2023-03-21T00:28:39;7.93;;;4.70;;
20004;SDS011;68409;45.498;-73.582;2023-03-21T00:31:06;8.57;;;4.43;;
20004;SDS011;68409;45.498;-73.582;2023-03-21T00:33:34;7.13;;;4.20;;
20004;SDS011;68409;45.498;-73.582;2023-03-21T00:36:03;11.50;;;4.37;;
20004;SDS011;68409;45.498;-73.582;2023-03-21T00:38:31;7.70;;;4.23;;
20004;SDS011;68409;45.498;-73.582;2023-03-21T00:40:58;7.77;;;4.60;;
20004;SDS011;68409;45.498;-73.582;2023-03-21T00:43:24;24.40;;;4.97;;
20004;SDS011;68409;45.498;-73.582;2023-03-21T00:45:54;8.70;;;4.43;;
20004;SDS011;68409;45.498;-73.582;2023-03-21T00:48:22;13.50;;;4.17;;
20004;SDS011;68409;45.498;-73.582;2023-03-21T00:50:50;9.70;;;4.50;;
20004;SDS011;68409;45.498;-73.582;2023-03-21T00:53:18;7.80;;;4.40;;
20004;SDS011;68409;45.498;-73.582;2023-03-21T00:55:45;17.10;;;5.13;;
20004;SDS011;68409;45.498;-73.582;2023-03-21T00:58:11;7.97;;;4.00;;
20004;SDS011;68409;45.498;-73.582;2023-03-21T01:00:38;12.53;;;4.87;;
20004;SDS011;68409;45.498;-73.582;2023-03-21T01:03:08;12.70;;;4.60;;
20004;SDS011;68409;45.498;-73.582;2023-03-21T01:05:37;15.47;;;5.07;;
20004;SDS011;68409;45.498;-73.582;2023-03-21T01:08:23;7.43;;;4.10;;
20004;SDS011;68409;45.498;-73.582;2023-03-21T01:10:50;12.30;;;5.17;;
20004;SDS011;68409;45.498;-73.582;2023-03-21T01:13:18;7.07;;;4.20;;
20004;SDS011;68409;45.498;-73.582;2023-03-21T01:15:47;9.83;;;4.90;;
20004;SDS011;68409;45.498;-73.582;2023-03-21T01:18:15;7.73;;;5.00;;
20004;SDS011;68409;45.498;-73.582;2023-03-21T01:20:43;6.67;;;4.67;;
20004;SDS011;68409;45.498;-73.582;2023-03-21T01:23:10;9.30;;;4.63;;
20004;SDS011;68409;45.498;-73.582;2023-03-21T01:25:41;10.90;;;4.43;;
20004;SDS011;68409;45.498;-73.582;2023-03-21T01:28:08;15.30;;;4.90;;
20004;SDS011;68409;45.498;-73.582;2023-03-21T01:30:35;11.63;;;4.70;;
20004;SDS011;68409;45.498;-73.582;2023-03-21T01:33:02;10.50;;;4.43;;
20004;SDS011;68409;45.498;-73.582;2023-03-21T01:35:28;15.27;;;4.43;;
20004;SDS011;68409;45.498;-73.582;2023-03-21T01:37:54;10.03;;;5.20;;
20004;SDS011;68409;45.498;-73.582;2023-03-21T01:40:22;9.03;;;4.73;;
20004;SDS011;68409;45.498;-73.582;2023-03-21T01:42:50;12.87;;;4.40;;
20004;SDS011;68409;45.498;-73.582;2023-03-21T01:48:20;10.40;;;5.03;;
20004;SDS011;68409;45.498;-73.582;2023-03-21T01:50:50;7.53;;;4.70;;
20004;SDS011;68409;45.498;-73.582;2023-03-21T01:53:19;10.47;;;4.83;;
20004;SDS011;68409;45.498;-73.582;2023-03-21T01:55:49;8.67;;;4.37;;
20004;SDS011;68409;45.498;-73.582;2023-03-21T01:58:15;15.03;;;4.50;;
20004;SDS011;68409;45.498;-73.582;2023-03-21T02:00:43;10.00;;;4.47;;
20004;SDS011;68409;45.498;-73.582;2023-03-21T02:03:11;10.40;;;5.27;;
20004;SDS011;68409;45.498;-73.582;2023-03-21T02:08:18;13.60;;;5.57;;
20004;SDS011;68409;45.498;-73.582;2023-03-21T02:10:45;10.50;;;4.80;;
20004;SDS011;68409;45.498;-73.582;2023-03-21T02:13:13;10.50;;;4.30;;
20004;SDS011;68409;45.498;-73.582;2023-03-21T02:15:50;8.50;;;4.87;;
20004;SDS011;68409;45.498;-73.582;2023-03-21T02:22:11;8.83;;;4.70;;
20004;SDS011;68409;45.498;-73.582;2023-03-21T02:27:14;8.70;;;4.57;;
20004;SDS011;68409;45.498;-73.582;2023-03-21T02:32:29;9.93;;;4.83;;
20004;SDS011;68409;45.498;-73.582;2023-03-21T02:38:02;9.57;;;4.57;;
20004;SDS011;68409;45.498;-73.582;2023-03-21T02:40:49;18.33;;;4.93;;
20004;SDS011;68409;45.498;-73.582;2023-03-21T02:46:18;10.83;;;5.40;;
20004;SDS011;68409;45.498;-73.582;2023-03-21T02:49:09;9.57;;;4.70;;
20004;SDS011;68409;45.498;-73.582;2023-03-21T02:51:57;7.60;;;4.80;;
20004;SDS011;68409;45.498;-73.582;2023-03-21T02:54:26;6.27;;;5.17;;
20004;SDS011;68409;45.498;-73.582;2023-03-21T02:56:54;6.50;;;4.37;;
20004;SDS011;68409;45.498;-73.582;2023-03-21T02:59:23;9.63;;;4.90;;
20004;SDS011;68409;45.498;-73.582;2023-03-21T03:01:51;9.50;;;5.47;;
20004;SDS011;68409;45.498;-73.582;2023-03-21T03:04:26;7.97;;;4.03;;
20004;SDS011;68409;45.498;-73.582;2023-03-21T03:20:47;11.20;;;5.00;;
20004;SDS011;68409;45.498;-73.582;2023-03-21T03:23:41;12.03;;;6.07;;
20004;SDS011;68409;45.498;-73.582;2023-03-21T03:26:31;7.50;;;5.17;;
20004;SDS011;68409;45.498;-73.582;2023-03-21T03:29:10;8.43;;;5.10;;
20004;SDS011;68409;45.498;-73.582;2023-03-21T03:31:50;7.20;;;5.07;;
20004;SDS011;68409;45.498;-73.582;2023-03-21T03:34:28;11.13;;;5.20;;
20004;SDS011;68409;45.498;-73.582;2023-03-21T03:37:05;9.00;;;5.10;;
20004;SDS011;68409;45.498;-73.582;2023-03-21T03:39:36;8.27;;;4.93;;
20004;SDS011;68409;45.498;-73.582;2023-03-21T03:42:14;19.00;;;5.10;;
20004;SDS011;68409;45.498;-73.582;2023-03-21T03:44:44;10.90;;;4.90;;
20004;SDS011;68409;45.498;-73.582;2023-03-21T03:47:15;9.47;;;4.90;;
20004;SDS011;68409;45.498;-73.582;2023-03-21T03:49:49;7.07;;;4.77;;
20004;SDS011;68409;45.498;-73.582;2023-03-21T03:53:12;8.63;;;4.80;;
20004;SDS011;68409;45.498;-73.582;2023-03-21T03:55:41;11.83;;;5.00;;
20004;SDS011;68409;45.498;-73.582;2023-03-21T03:58:08;10.60;;;4.93;;
20004;SDS011;68409;45.498;-73.582;2023-03-21T04:00:35;8.70;;;5.27;;
20004;SDS011;68409;45.498;-73.582;2023-03-21T04:03:02;7.03;;;5.03;;
20004;SDS011;68409;45.498;-73.582;2023-03-21T04:05:31;8.30;;;4.93;;
20004;SDS011;68409;45.498;-73.582;2023-03-21T04:07:57;13.57;;;5.27;;
20004;SDS011;68409;45.498;-73.582;2023-03-21T04:10:23;7.70;;;4.90;;
20004;SDS011;68409;45.498;-73.582;2023-03-21T04:12:49;10.53;;;5.60;;
20004;SDS011;68409;45.498;-73.582;2023-03-21T04:15:16;10.50;;;5.20;;
20004;SDS011;68409;45.498;-73.582;2023-03-21T04:17:43;7.73;;;5.03;;
20004;SDS011;68409;45.498;-73.582;2023-03-21T04:20:09;8.90;;;4.77;;
20004;SDS011;68409;45.498;-73.582;2023-03-21T04:22:36;7.23;;;5.13;;
20004;SDS011;68409;45.498;-73.582;2023-03-21T04:25:02;6.30;;;4.83;;
20004;SDS011;68409;45.498;-73.582;2023-03-21T04:27:29;11.93;;;5.27;;
20004;SDS011;68409;45.498;-73.582;2023-03-21T04:29:57;8.20;;;5.00;;
20004;SDS011;68409;45.498;-73.582;2023-03-21T04:32:24;10.17;;;4.90;;
20004;SDS011;68409;45.498;-73.582;2023-03-21T04:34:51;8.07;;;5.20;;
20004;SDS011;68409;45.498;-73.582;2023-03-21T04:37:21;8.63;;;4.93;;
20004;SDS011;68409;45.498;-73.582;2023-03-21T04:39:48;9.80;;;5.90;;
20004;SDS011;68409;45.498;-73.582;2023-03-21T04:42:15;10.27;;;5.67;;
20004;SDS011;68409;45.498;-73.582;2023-03-21T04:44:43;9.30;;;5.20;;
20004;SDS011;68409;45.498;-73.582;2023-03-21T04:47:10;8.53;;;5.10;;
20004;SDS011;68409;45.498;-73.582;2023-03-21T04:49:37;9.07;;;5.40;;
20004;SDS011;68409;45.498;-73.582;2023-03-21T04:52:04;7.60;;;5.07;;
20004;SDS011;68409;45.498;-73.582;2023-03-21T04:54:30;10.47;;;5.20;;
20004;SDS011;68409;45.498;-73.582;2023-03-21T04:56:59;9.23;;;5.27;;
20004;SDS011;68409;45.498;-73.582;2023-03-21T04:59:25;7.77;;;5.37;;
20004;SDS011;68409;45.498;-73.582;2023-03-21T05:01:52;8.20;;;5.60;;
20004;SDS011;68409;45.498;-73.582;2023-03-21T05:04:21;7.60;;;5.53;;
20004;SDS011;68409;45.498;-73.582;2023-03-21T05:06:47;10.10;;;5.27;;
20004;SDS011;68409;45.498;-73.582;2023-03-21T05:09:13;8.33;;;5.33;;
20004;SDS011;68409;45.498;-73.582;2023-03-21T05:11:39;10.10;;;5.60;;
20004;SDS011;68409;45.498;-73.582;2023-03-21T05:14:06;8.20;;;5.20;;
20004;SDS011;68409;45.498;-73.582;2023-03-21T05:16:34;9.70;;;5.20;;
20004;SDS011;68409;45.498;-73.582;2023-03-21T05:19:03;9.37;;;5.47;;
20004;SDS011;68409;45.498;-73.582;2023-03-21T05:21:30;8.93;;;5.60;;
20004;SDS011;68409;45.498;-73.582;2023-03-21T05:24:06;11.40;;;4.97;;
20004;SDS011;68409;45.498;-73.582;2023-03-21T05:26:38;9.70;;;5.43;;
20004;SDS011;68409;45.498;-73.582;2023-03-21T05:29:05;8.20;;;4.90;;
20004;SDS011;68409;45.498;-73.582;2023-03-21T05:31:32;7.63;;;5.20;;
20004;SDS011;68409;45.498;-73.582;2023-03-21T05:33:58;8.73;;;6.23;;
20004;SDS011;68409;45.498;-73.582;2023-03-21T05:36:24;12.50;;;5.50;;
20004;SDS011;68409;45.498;-73.582;2023-03-21T05:38:50;9.37;;;5.37;;
20004;SDS011;68409;45.498;-73.582;2023-03-21T05:41:17;11.00;;;5.93;;
20004;SDS011;68409;45.498;-73.582;2023-03-21T05:43:43;6.90;;;5.27;;
20004;SDS011;68409;45.498;-73.582;2023-03-21T05:46:10;7.43;;;5.20;;
20004;SDS011;68409;45.498;-73.582;2023-03-21T05:48:36;7.40;;;5.13;;
20004;SDS011;68409;45.498;-73.582;2023-03-21T05:51:02;9.30;;;5.67;;
20004;SDS011;68409;45.498;-73.582;2023-03-21T05:53:29;8.87;;;6.10;;
20004;SDS011;68409;45.498;-73.582;2023-03-21T05:55:55;13.50;;;6.33;;
20004;SDS011;68409;45.498;-73.582;2023-03-21T05:58:21;8.33;;;5.50;;
20004;SDS011;68409;45.498;-73.582;2023-03-21T06:00:48;9.57;;;5.90;;
20004;SDS011;68409;45.498;-73.582;2023-03-21T06:03:14;10.53;;;6.43;;
20004;SDS011;68409;45.498;-73.582;2023-03-21T06:05:40;10.20;;;6.07;;
20004;SDS011;68409;45.498;-73.582;2023-03-21T06:08:08;9.80;;;5.87;;
20004;SDS011;68409;45.498;-73.582;2023-03-21T06:10:34;8.13;;;5.07;;
20004;SDS011;68409;45.498;-73.582;2023-03-21T06:13:01;7.73;;;5.40;;
20004;SDS011;68409;45.498;-73.582;2023-03-21T06:15:27;10.07;;;5.90;;
20004;SDS011;68409;45.498;-73.582;2023-03-21T06:17:55;9.87;;;6.07;;
20004;SDS011;68409;45.498;-73.582;2023-03-21T06:20:21;10.00;;;6.20;;
20004;SDS011;68409;45.498;-73.582;2023-03-21T06:22:47;12.40;;;5.97;;
20004;SDS011;68409;45.498;-73.582;2023-03-21T06:25:13;11.47;;;6.37;;
20004;SDS011;68409;45.498;-73.582;2023-03-21T06:27:40;9.13;;;6.33;;
20004;SDS011;68409;45.498;-73.582;2023-03-21T06:30:06;10.93;;;6.20;;
20004;SDS011;68409;45.498;-73.582;2023-03-21T06:32:33;9.93;;;5.60;;
20004;SDS011;68409;45.498;-73.582;2023-03-21T06:34:59;8.13;;;5.77;;
20004;SDS011;68409;45.498;-73.582;2023-03-21T06:37:26;9.37;;;5.53;;
20004;SDS011;68409;45.498;-73.582;2023-03-21T06:39:52;11.00;;;6.27;;
20004;SDS011;68409;45.498;-73.582;2023-03-21T06:42:18;9.77;;;5.37;;
20004;SDS011;68409;45.498;-73.582;2023-03-21T06:44:45;14.23;;;6.40;;
20004;SDS011;68409;45.498;-73.582;2023-03-21T06:47:11;9.90;;;6.10;;
20004;SDS011;68409;45.498;-73.582;2023-03-21T06:49:38;10.73;;;6.50;;
20004;SDS011;68409;45.498;-73.582;2023-03-21T06:52:06;8.80;;;5.77;;
20004;SDS011;68409;45.498;-73.582;2023-03-21T06:54:33;11.33;;;5.70;;
20004;SDS011;68409;45.498;-73.582;2023-03-21T06:56:59;10.60;;;6.90;;
20004;SDS011;68409;45.498;-73.582;2023-03-21T06:59:25;11.47;;;5.87;;
20004;SDS011;68409;45.498;-73.582;2023-03-21T07:01:51;10.97;;;6.00;;
20004;SDS011;68409;45.498;-73.582;2023-03-21T07:04:17;12.30;;;6.50;;
20004;SDS011;68409;45.498;-73.582;2023-03-21T07:06:43;12.80;;;6.70;;
20004;SDS011;68409;45.498;-73.582;2023-03-21T07:09:09;14.50;;;6.03;;
20004;SDS011;68409;45.498;-73.582;2023-03-21T07:11:37;10.40;;;6.50;;
20004;SDS011;68409;45.498;-73.582;2023-03-21T07:14:03;10.00;;;6.07;;
20004;SDS011;68409;45.498;-73.582;2023-03-21T07:16:30;9.70;;;6.13;;
20004;SDS011;68409;45.498;-73.582;2023-03-21T07:18:56;12.33;;;6.53;;
20004;SDS011;68409;45.498;-73.582;2023-03-21T07:21:22;10.43;;;6.43;;
20004;SDS011;68409;45.498;-73.582;2023-03-21T07:23:48;9.80;;;6.00;;
20004;SDS011;68409;45.498;-73.582;2023-03-21T07:26:16;15.83;;;7.57;;
20004;SDS011;68409;45.498;-73.582;2023-03-21T07:28:43;11.27;;;6.40;;
20004;SDS011;68409;45.498;-73.582;2023-03-21T07:31:12;11.20;;;6.50;;
20004;SDS011;68409;45.498;-73.582;2023-03-21T07:33:42;11.97;;;6.80;;
20004;SDS011;68409;45.498;-73.582;2023-03-21T07:36:09;12.57;;;6.57;;
20004;SDS011;68409;45.498;-73.582;2023-03-21T07:38:37;9.93;;;6.73;;
20004;SDS011;68409;45.498;-73.582;2023-03-21T07:41:05;10.80;;;6.53;;
20004;SDS011;68409;45.498;-73.582;2023-03-21T07:43:31;14.73;;;9.63;;
20004;SDS011;68409;45.498;-73.582;2023-03-21T07:45:58;12.20;;;7.27;;
20004;SDS011;68409;45.498;-73.582;2023-03-21T07:48:24;11.57;;;6.80;;
20004;SDS011;68409;45.498;-73.582;2023-03-21T07:50:50;13.50;;;7.23;;
20004;SDS011;68409;45.498;-73.582;2023-03-21T07:53:17;26.33;;;8.23;;
20004;SDS011;68409;45.498;-73.582;2023-03-21T07:55:44;17.60;;;7.00;;
20004;SDS011;68409;45.498;-73.582;2023-03-21T07:58:14;15.40;;;6.97;;
20004;SDS011;68409;45.498;-73.582;2023-03-21T08:00:40;12.23;;;6.97;;
20004;SDS011;68409;45.498;-73.582;2023-03-21T08:03:06;11.60;;;7.33;;
20004;SDS011;68409;45.498;-73.582;2023-03-21T08:05:34;11.93;;;7.23;;
20004;SDS011;68409;45.498;-73.582;2023-03-21T08:08:02;12.73;;;7.00;;
20004;SDS011;68409;45.498;-73.582;2023-03-21T08:10:29;14.50;;;7.20;;
20004;SDS011;68409;45.498;-73.582;2023-03-21T08:12:55;13.40;;;6.80;;
20004;SDS011;68409;45.498;-73.582;2023-03-21T08:15:21;12.77;;;6.50;;
20004;SDS011;68409;45.498;-73.582;2023-03-21T08:17:48;10.47;;;6.80;;
20004;SDS011;68409;45.498;-73.582;2023-03-21T08:20:15;12.47;;;6.73;;
20004;SDS011;68409;45.498;-73.582;2023-03-21T08:22:45;9.87;;;6.40;;
20004;SDS011;68409;45.498;-73.582;2023-03-21T08:25:12;13.77;;;7.90;;
20004;SDS011;68409;45.498;-73.582;2023-03-21T08:27:42;14.60;;;7.33;;
20004;SDS011;68409;45.498;-73.582;2023-03-21T08:30:10;11.27;;;7.70;;
20004;SDS011;68409;45.498;-73.582;2023-03-21T08:32:39;13.27;;;7.10;;
20004;SDS011;68409;45.498;-73.582;2023-03-21T08:35:07;12.80;;;7.60;;
20004;SDS011;68409;45.498;-73.582;2023-03-21T08:37:40;14.77;;;7.47;;
20004;SDS011;68409;45.498;-73.582;2023-03-21T08:40:08;15.03;;;7.73;;
20004;SDS011;68409;45.498;-73.582;2023-03-21T08:42:38;15.90;;;8.10;;
20004;SDS011;68409;45.498;-73.582;2023-03-21T08:45:05;9.60;;;6.83;;
20004;SDS011;68409;45.498;-73.582;2023-03-21T08:47:32;14.43;;;6.70;;
20004;SDS011;68409;45.498;-73.582;2023-03-21T08:49:58;13.80;;;7.17;;
20004;SDS011;68409;45.498;-73.582;2023-03-21T08:52:25;12.40;;;7.67;;
20004;SDS011;68409;45.498;-73.582;2023-03-21T08:54:52;11.23;;;6.87;;
20004;SDS011;68409;45.498;-73.582;2023-03-21T08:57:21;12.80;;;7.17;;
20004;SDS011;68409;45.498;-73.582;2023-03-21T08:59:47;12.87;;;6.57;;
20004;SDS011;68409;45.498;-73.582;2023-03-21T09:02:14;11.20;;;7.07;;
20004;SDS011;68409;45.498;-73.582;2023-03-21T09:04:41;13.60;;;6.40;;
20004;SDS011;68409;45.498;-73.582;2023-03-21T09:07:09;14.27;;;6.60;;
20004;SDS011;68409;45.498;-73.582;2023-03-21T09:09:37;10.70;;;6.63;;
20004;SDS011;68409;45.498;-73.582;2023-03-21T09:12:04;11.00;;;7.07;;
20004;SDS011;68409;45.498;-73.582;2023-03-21T09:14:30;10.33;;;6.07;;
20004;SDS011;68409;45.498;-73.582;2023-03-21T09:16:57;11.17;;;6.40;;
20004;SDS011;68409;45.498;-73.582;2023-03-21T09:19:23;10.37;;;6.97;;
20004;SDS011;68409;45.498;-73.582;2023-03-21T09:21:50;9.70;;;6.73;;
20004;SDS011;68409;45.498;-73.582;2023-03-21T09:24:18;16.27;;;8.07;;
20004;SDS011;68409;45.498;-73.582;2023-03-21T09:26:44;10.83;;;6.83;;
20004;SDS011;68409;45.498;-73.582;2023-03-21T09:29:14;17.83;;;6.80;;
20004;SDS011;68409;45.498;-73.582;2023-03-21T09:31:40;13.23;;;6.43;;
20004;SDS011;68409;45.498;-73.582;2023-03-21T09:34:08;13.50;;;7.30;;
20004;SDS011;68409;45.498;-73.582;2023-03-21T09:36:34;11.30;;;6.30;;
20004;SDS011;68409;45.498;-73.582;2023-03-21T09:39:01;11.07;;;7.13;;
20004;SDS011;68409;45.498;-73.582;2023-03-21T09:41:53;11.37;;;6.90;;
20004;SDS011;68409;45.498;-73.582;2023-03-21T09:46:51;14.90;;;7.43;;
20004;SDS011;68409;45.498;-73.582;2023-03-21T09:49:45;17.03;;;7.30;;
20004;SDS011;68409;45.498;-73.582;2023-03-21T09:55:24;14.47;;;7.00;;
20004;SDS011;68409;45.498;-73.582;2023-03-21T09:57:59;13.97;;;7.60;;
20004;SDS011;68409;45.498;-73.582;2023-03-21T10:00:51;15.43;;;6.80;;
20004;SDS011;68409;45.498;-73.582;2023-03-21T10:03:25;19.73;;;7.70;;
20004;SDS011;68409;45.498;-73.582;2023-03-21T10:05:55;15.47;;;7.87;;
20004;SDS011;68409;45.498;-73.582;2023-03-21T10:08:29;11.30;;;6.40;;
20004;SDS011;68409;45.498;-73.582;2023-03-21T10:11:02;14.40;;;7.30;;
20004;SDS011;68409;45.498;-73.582;2023-03-21T10:13:34;15.37;;;7.00;;
20004;SDS011;68409;45.498;-73.582;2023-03-21T10:16:15;12.23;;;6.10;;
20004;SDS011;68409;45.498;-73.582;2023-03-21T10:18:47;13.20;;;5.93;;
20004;SDS011;68409;45.498;-73.582;2023-03-21T10:21:23;13.83;;;7.27;;
20004;SDS011;68409;45.498;-73.582;2023-03-21T10:23:52;11.23;;;7.00;;
20004;SDS011;68409;45.498;-73.582;2023-03-21T10:26:23;12.53;;;6.57;;
20004;SDS011;68409;45.498;-73.582;2023-03-21T10:28:52;13.67;;;6.60;;
20004;SDS011;68409;45.498;-73.582;2023-03-21T10:31:21;12.53;;;6.50;;
20004;SDS011;68409;45.498;-73.582;2023-03-21T10:33:53;11.77;;;6.93;;
20004;SDS011;68409;45.498;-73.582;2023-03-21T10:36:24;13.03;;;6.57;;
20004;SDS011;68409;45.498;-73.582;2023-03-21T10:38:53;16.93;;;7.70;;
20004;SDS011;68409;45.498;-73.582;2023-03-21T10:41:25;20.17;;;7.20;;
20004;SDS011;68409;45.498;-73.582;2023-03-21T10:46:51;12.80;;;7.33;;
20004;SDS011;68409;45.498;-73.582;2023-03-21T10:49:19;18.90;;;6.10;;
20004;SDS011;68409;45.498;-73.582;2023-03-21T10:51:47;13.63;;;6.73;;
20004;SDS011;68409;45.498;-73.582;2023-03-21T10:54:17;14.13;;;7.30;;
20004;SDS011;68409;45.498;-73.582;2023-03-21T10:57:04;16.03;;;7.40;;
20004;SDS011;68409;45.498;-73.582;2023-03-21T10:59:42;18.13;;;7.53;;
20004;SDS011;68409;45.498;-73.582;2023-03-21T11:02:25;17.50;;;6.87;;
20004;SDS011;68409;45.498;-73.582;2023-03-21T11:04:55;13.43;;;7.60;;
20004;SDS011;68409;45.498;-73.582;2023-03-21T11:07:22;17.57;;;8.20;;
20004;SDS011;68409;45.498;-73.582;2023-03-21T11:09:56;15.67;;;7.23;;
20004;SDS011;68409;45.498;-73.582;2023-03-21T11:12:34;22.40;;;8.37;;
20004;SDS011;68409;45.498;-73.582;2023-03-21T11:15:23;20.63;;;7.17;;
20004;SDS011;68409;45.498;-73.582;2023-03-21T11:20:57;25.77;;;7.33;;
20004;SDS011;68409;45.498;-73.582;2023-03-21T11:23:29;17.43;;;7.40;;
20004;SDS011;68409;45.498;-73.582;2023-03-21T11:25:59;17.53;;;7.53;;
20004;SDS011;68409;45.498;-73.582;2023-03-21T11:28:36;14.43;;;7.20;;
20004;SDS011;68409;45.498;-73.582;2023-03-21T11:31:04;21.20;;;7.50;;
20004;SDS011;68409;45.498;-73.582;2023-03-21T11:33:37;20.03;;;7.07;;
20004;SDS011;68409;45.498;-73.582;2023-03-21T11:38:48;22.63;;;7.47;;
20004;SDS011;68409;45.498;-73.582;2023-03-21T11:41:31;16.33;;;6.63;;
20004;SDS011;68409;45.498;-73.582;2023-03-21T11:43:59;17.87;;;7.40;;
20004;SDS011;68409;45.498;-73.582;2023-03-21T11:46:28;18.53;;;8.00;;
20004;SDS011;68409;45.498;-73.582;2023-03-21T11:48:57;20.63;;;7.50;;
20004;SDS011;68409;45.498;-73.582;2023-03-21T11:51:32;25.97;;;8.27;;
20004;SDS011;68409;45.498;-73.582;2023-03-21T11:54:15;39.23;;;9.30;;
20004;SDS011;68409;45.498;-73.582;2023-03-21T11:56:52;28.00;;;9.20;;
20004;SDS011;68409;45.498;-73.582;2023-03-21T11:59:48;24.33;;;7.63;;
20004;SDS011;68409;45.498;-73.582;2023-03-21T12:05:57;28.10;;;8.00;;
20004;SDS011;68409;45.498;-73.582;2023-03-21T12:11:11;21.10;;;7.60;;
20004;SDS011;68409;45.498;-73.582;2023-03-21T12:14:02;19.57;;;8.10;;
20004;SDS011;68409;45.498;-73.582;2023-03-21T12:16:43;18.40;;;8.00;;
20004;SDS011;68409;45.498;-73.582;2023-03-21T12:25:26;34.67;;;9.93;;
20004;SDS011;68409;45.498;-73.582;2023-03-21T12:28:00;24.77;;;8.73;;
20004;SDS011;68409;45.498;-73.582;2023-03-21T12:38:15;23.60;;;8.70;;
20004;SDS011;68409;45.498;-73.582;2023-03-21T12:43:22;23.43;;;8.00;;
20004;SDS011;68409;45.498;-73.582;2023-03-21T12:45:57;23.30;;;8.00;;
20004;SDS011;68409;45.498;-73.582;2023-03-21T12:51:13;26.43;;;8.30;;
20004;SDS011;68409;45.498;-73.582;2023-03-21T12:56:28;35.37;;;8.70;;
20004;SDS011;68409;45.498;-73.582;2023-03-21T12:59:17;38.53;;;9.30;;
20004;SDS011;68409;45.498;-73.582;2023-03-21T13:01:45;30.77;;;9.53;;
20004;SDS011;68409;45.498;-73.582;2023-03-21T13:04:35;52.10;;;9.40;;
20004;SDS011;68409;45.498;-73.582;2023-03-21T13:07:09;32.27;;;7.77;;
20004;SDS011;68409;45.498;-73.582;2023-03-21T13:09:41;31.13;;;8.50;;
20004;SDS011;68409;45.498;-73.582;2023-03-21T13:15:10;15.80;;;6.93;;
20004;SDS011;68409;45.498;-73.582;2023-03-21T13:17:58;15.43;;;6.97;;
20004;SDS011;68409;45.498;-73.582;2023-03-21T13:20:51;27.03;;;8.47;;
20004;SDS011;68409;45.498;-73.582;2023-03-21T13:23:23;17.10;;;6.67;;
20004;SDS011;68409;45.498;-73.582;2023-03-21T13:25:51;16.50;;;7.50;;
20004;SDS011;68409;45.498;-73.582;2023-03-21T13:28:29;19.80;;;7.20;;
20004;SDS011;68409;45.498;-73.582;2023-03-21T13:31:20;21.57;;;6.57;;
20004;SDS011;68409;45.498;-73.582;2023-03-21T13:33:47;29.00;;;8.20;;
20004;SDS011;68409;45.498;-73.582;2023-03-21T13:36:17;20.90;;;6.70;;
20004;SDS011;68409;45.498;-73.582;2023-03-21T13:38:58;20.37;;;7.73;;
20004;SDS011;68409;45.498;-73.582;2023-03-21T13:41:34;26.37;;;6.83;;
20004;SDS011;68409;45.498;-73.582;2023-03-21T13:48:59;16.47;;;5.30;;
20004;SDS011;68409;45.498;-73.582;2023-03-21T13:54:00;25.73;;;5.77;;
20004;SDS011;68409;45.498;-73.582;2023-03-21T13:56:28;13.33;;;5.07;;
20004;SDS011;68409;45.498;-73.582;2023-03-21T14:04:41;10.80;;;5.13;;
20004;SDS011;68409;45.498;-73.582;2023-03-21T14:07:10;14.33;;;5.30;;
20004;SDS011;68409;45.498;-73.582;2023-03-21T14:09:58;10.47;;;5.40;;
20004;SDS011;68409;45.498;-73.582;2023-03-21T14:12:45;11.83;;;5.03;;
20004;SDS011;68409;45.498;-73.582;2023-03-21T14:15:19;12.27;;;5.70;;
20004;SDS011;68409;45.498;-73.582;2023-03-21T14:17:54;12.13;;;5.07;;
20004;SDS011;68409;45.498;-73.582;2023-03-21T14:20:32;12.77;;;6.20;;
20004;SDS011;68409;45.498;-73.582;2023-03-21T14:23:05;8.23;;;5.00;;
20004;SDS011;68409;45.498;-73.582;2023-03-21T14:25:35;9.47;;;5.67;;
20004;SDS011;68409;45.498;-73.582;2023-03-21T14:28:07;13.37;;;5.60;;
20004;SDS011;68409;45.498;-73.582;2023-03-21T14:30:53;9.50;;;5.67;;
20004;SDS011;68409;45.498;-73.582;2023-03-21T14:33:34;15.37;;;7.00;;
20004;SDS011;68409;45.498;-73.582;2023-03-21T14:36:06;14.83;;;6.20;;
20004;SDS011;68409;45.498;-73.582;2023-03-21T14:38:38;15.03;;;5.70;;
20004;SDS011;68409;45.498;-73.582;2023-03-21T14:41:05;18.77;;;5.77;;
20004;SDS011;68409;45.498;-73.582;2023-03-21T14:43:59;17.57;;;5.83;;
20004;SDS011;68409;45.498;-73.582;2023-03-21T14:46:36;11.27;;;5.63;;
20004;SDS011;68409;45.498;-73.582;2023-03-21T14:49:16;11.53;;;5.80;;
20004;SDS011;68409;45.498;-73.582;2023-03-21T14:51:59;9.83;;;5.40;;
20004;SDS011;68409;45.498;-73.582;2023-03-21T14:54:27;13.50;;;5.80;;
20004;SDS011;68409;45.498;-73.582;2023-03-21T14:57:02;8.97;;;5.23;;
20004;SDS011;68409;45.498;-73.582;2023-03-21T14:59:35;12.80;;;5.80;;
20004;SDS011;68409;45.498;-73.582;2023-03-21T15:02:03;12.33;;;6.03;;
20004;SDS011;68409;45.498;-73.582;2023-03-21T15:04:39;10.17;;;5.37;;
20004;SDS011;68409;45.498;-73.582;2023-03-21T15:07:21;10.33;;;6.40;;
20004;SDS011;68409;45.498;-73.582;2023-03-21T15:09:54;12.50;;;5.97;;
20004;SDS011;68409;45.498;-73.582;2023-03-21T15:12:22;15.40;;;5.87;;
20004;SDS011;68409;45.498;-73.582;2023-03-21T15:14:48;8.43;;;6.13;;
20004;SDS011;68409;45.498;-73.582;2023-03-21T15:17:20;11.47;;;6.30;;
20004;SDS011;68409;45.498;-73.582;2023-03-21T15:19:48;8.90;;;5.70;;
20004;SDS011;68409;45.498;-73.582;2023-03-21T15:25:03;10.80;;;7.00;;
20004;SDS011;68409;45.498;-73.582;2023-03-21T15:27:33;10.67;;;6.27;;
20004;SDS011;68409;45.498;-73.582;2023-03-21T15:30:05;14.90;;;6.87;;
20004;SDS011;68409;45.498;-73.582;2023-03-21T15:32:32;8.20;;;5.20;;
20004;SDS011;68409;45.498;-73.582;2023-03-21T15:35:34;12.23;;;5.83;;
20004;SDS011;68409;45.498;-73.582;2023-03-21T15:38:05;18.33;;;6.20;;
20004;SDS011;68409;45.498;-73.582;2023-03-21T15:40:32;10.00;;;6.40;;
20004;SDS011;68409;45.498;-73.582;2023-03-21T15:43:06;12.07;;;6.90;;
20004;SDS011;68409;45.498;-73.582;2023-03-21T15:45:50;14.27;;;6.20;;
20004;SDS011;68409;45.498;-73.582;2023-03-21T15:48:21;12.10;;;7.10;;
20004;SDS011;68409;45.498;-73.582;2023-03-21T15:51:01;11.57;;;6.83;;
20004;SDS011;68409;45.498;-73.582;2023-03-21T15:53:33;14.60;;;7.13;;
20004;SDS011;68409;45.498;-73.582;2023-03-21T15:56:02;9.00;;;5.90;;
20004;SDS011;68409;45.498;-73.582;2023-03-21T15:58:40;13.90;;;6.80;;
20004;SDS011;68409;45.498;-73.582;2023-03-21T16:01:15;17.00;;;6.70;;
20004;SDS011;68409;45.498;-73.582;2023-03-21T16:03:45;11.77;;;6.70;;
20004;SDS011;68409;45.498;-73.582;2023-03-21T16:06:25;16.13;;;7.00;;
20004;SDS011;68409;45.498;-73.582;2023-03-21T16:11:36;12.53;;;6.00;;
20004;SDS011;68409;45.498;-73.582;2023-03-21T16:14:05;8.43;;;6.00;;